1992 IAN (1992055S12119)


On this page: IBTrACS data - Map and Plots - Positions - Intensities - Original source data

Summary

Start Feb 23
End Mar 4
Basin SI
LMI 115 kt
Sources jtwc_sh
bom
neumann
In WMO? Yes
Previous storm 1992 FARIDA (SI)
Previous in basin 1992 FARIDA (SI)
Concurrent storms 1992 DAVILIA (SI)
1992 ELIZABETA (SI)
1992 FARIDA (SI)
1992 IAN (SI)
1992 ESAU (SP)
1992 GERDA (SI)
1992 HARRIET (SI)
1992 H19192 (SI)
1992 FRAN (SP)
Next in basin 1992 GERDA (SI)
Next storm 1992 ESAU (SP)

top of page IBTrACS Data: File Access

top of page HURSAT Data: File Access

Image of storm

top of page Plots:

Map of storm track will not appear if FTP is down
Time series of cyclone Maximum Sustained Wind will not appear if FTP is down
Time series of cyclone Minimum Central Pressure will not appear if FTP is down

top of page Track Data:Position

jtwc_sh bom neumann
Date Lat Lon Lat Lon Lat Lon
1992-02-23 18:00:00 -12.0 118.5 -12.0 118.5
1992-02-24 00:00:00 -12.2 118.1 -12.2 118.1
1992-02-24 06:00:00 -12.4 117.7 -12.4 117.7
1992-02-24 12:00:00 -12.6 117.3 -12.6 117.3
1992-02-24 18:00:00 -12.8 116.9 -12.8 116.9
1992-02-25 00:00:00 -12.9 116.5 -12.9 116.5
1992-02-25 06:00:00 -13.0 116.1 -13.0 116.1
1992-02-25 12:00:00 -13.0 115.7 -13.0 115.7
1992-02-25 18:00:00 -12.9 115.4 -12.9 115.4
1992-02-26 00:00:00 -12.8 115.1 -12.8 115.1
1992-02-26 06:00:00 -12.7 114.8 -12.7 114.8
1992-02-26 12:00:00 -12.6 114.6 -12.6 114.6
1992-02-26 18:00:00 -12.4 114.5 -12.4 114.5
1992-02-27 00:00:00 -12.2 114.6 -11.8 114.3 -12.2 114.6
1992-02-27 06:00:00 -12.0 114.8 -11.7 114.5 -12.0 114.8
1992-02-27 12:00:00 -11.8 115.0 -11.7 115.1 -11.8 115.0
1992-02-27 18:00:00 -11.7 115.4 -11.6 115.5 -11.7 115.4
1992-02-28 00:00:00 -11.6 115.9 -11.6 115.9 -11.6 115.9
1992-02-28 06:00:00 -11.7 116.4 -11.6 116.5 -11.7 116.4
1992-02-28 12:00:00 -11.9 116.8 -11.9 116.9 -11.9 116.8
1992-02-28 18:00:00 -12.3 117.0 -12.4 117.2 -12.3 117.0
1992-02-29 00:00:00 -12.8 117.2 -12.9 117.3 -12.8 117.2
1992-02-29 06:00:00 -13.4 117.3 -13.4 117.3 -13.4 117.3
1992-02-29 12:00:00 -14.0 117.3 -14.2 117.3 -14.0 117.3
1992-02-29 18:00:00 -14.6 117.3 -14.7 117.3 -14.6 117.3
jtwc_sh bom neumann
1992-03-01 00:00:00 -15.3 117.3 -15.3 117.3 -15.3 117.3
1992-03-01 06:00:00 -16.1 117.2 -16.1 117.2 -16.1 117.2
1992-03-01 12:00:00 -17.0 117.0 -17.1 116.9 -17.0 117.0
1992-03-01 18:00:00 -17.8 116.7 -17.9 116.6 -17.8 116.7
1992-03-02 00:00:00 -18.6 116.3 -18.6 116.1 -18.6 116.3
1992-03-02 06:00:00 -19.3 116.0 -19.4 115.8 -19.3 116.0
1992-03-02 12:00:00 -20.1 115.8 -20.2 115.5 -20.1 115.8
1992-03-02 18:00:00 -20.8 115.8 -20.8 115.5 -20.8 115.8
1992-03-03 00:00:00 -21.6 115.9 -21.7 115.7 -21.6 115.9
1992-03-03 06:00:00 -22.5 116.3 -22.7 116.5 -22.5 116.3
1992-03-03 12:00:00 -23.4 117.0 -23.6 117.2 -23.4 117.0
1992-03-03 18:00:00 -24.3 117.8 -24.6 118.0 -24.3 117.8
1992-03-04 00:00:00 -25.2 118.7 -25.7 118.7 -25.2 118.7
1992-03-04 06:00:00 -26.1 119.7 -26.1 119.7

top of pageTrack Data:Intensity

jtwc_sh bom neumann
Date Wind Pres Wind Pres Wind Pres
1992-02-23 18:00:00 15. 15.
1992-02-24 00:00:00 15. 15.
1992-02-24 06:00:00 20. 20.
1992-02-24 12:00:00 20. 20.
1992-02-24 18:00:00 20. 20.
1992-02-25 00:00:00 20. 20.
1992-02-25 06:00:00 20. 20.
1992-02-25 12:00:00 25. 25.
1992-02-25 18:00:00 25. 25.
1992-02-26 00:00:00 25. 25.
1992-02-26 06:00:00 25. 25.
1992-02-26 12:00:00 30. 30.
1992-02-26 18:00:00 30. 30.
1992-02-27 00:00:00 35. 31. 1000. 35.
1992-02-27 06:00:00 35. 39. 995. 35.
1992-02-27 12:00:00 40. 39. 995. 40.
1992-02-27 18:00:00 40. 47. 990. 40.
1992-02-28 00:00:00 45. 60. 980. 45.
1992-02-28 06:00:00 50. 74. 970. 50.
1992-02-28 12:00:00 60. 84. 960. 60.
1992-02-28 18:00:00 70. 89. 955. 70.
1992-02-29 00:00:00 80. 89. 955. 80.
1992-02-29 06:00:00 90. 95. 950. 90.
1992-02-29 12:00:00 95. 99. 945. 95.
1992-02-29 18:00:00 100. 95. 950. 100.
jtwc_sh bom neumann
1992-03-01 00:00:00 100. 99. 945. 100.
1992-03-01 06:00:00 105. 113. 930. 105.
1992-03-01 12:00:00 110. 109. 935. 110.
1992-03-01 18:00:00 115. 89. 955. 115.
1992-03-02 00:00:00 110. 84. 960. 110.
1992-03-02 06:00:00 105. 84. 960. 105.
1992-03-02 12:00:00 105. 84. 960. 105.
1992-03-02 18:00:00 100. 84. 960. 100.
1992-03-03 00:00:00 85. 74. 970. 70.
1992-03-03 06:00:00 55. 60. 980. 50.
1992-03-03 12:00:00 35. 47. 990. 40.
1992-03-03 18:00:00 25. 39. 995. 35.
1992-03-04 00:00:00 20. 23. 1005. 30.
1992-03-04 06:00:00 15. 25.

top of page Links to source data

Source Source file Format
jtwc_sh bsh231992.txt ATCF
bom IDCKMSTM0S.csv:Line=18492:IAN CSV file (from Excel file)
neumann tracks.sh:Storm=945:IAN:BSH231992:JTWC&BM615 HURDAT